Time;durP1;ratioP1;P1;durP2;ratioP2;P2;SDS_P1;SDS_P2;PMS_P1;PMS_P2;Temp;Humidity;BMP_temperature;BMP_pressure;BME280_temperature;BME280_humidity;BME280_pressure;Samples;Min_cycle;Max_cycle;Signal;HPM_P1;HPM_P2
2023/09/17 00:01:30;;;;;;;6.50;5.70;;;;;;;15.36;71.92;100931.58;108909;278;38176;-75
2023/09/17 00:04:06;;;;;;;6.70;6.00;;;;;;;15.34;71.90;100933.41;108938;278;38452;-72
2023/09/17 00:06:43;;;;;;;8.40;6.50;;;;;;;15.32;71.99;100930.39;108898;278;38633;-74
2023/09/17 00:09:18;;;;;;;6.40;5.70;;;;;;;15.31;72.17;100929.72;109023;278;38446;-75
2023/09/17 00:11:52;;;;;;;8.70;6.30;;;;;;;15.31;72.43;100921.11;108963;278;38329;-75
2023/09/17 00:14:27;;;;;;;7.60;6.60;;;;;;;15.30;72.49;100917.60;108984;278;38310;-75
2023/09/17 00:17:01;;;;;;;9.40;6.10;;;;;;;15.31;72.46;100916.34;108886;278;189488;-76
2023/09/17 00:19:36;;;;;;;6.90;5.70;;;;;;;15.30;72.72;100910.80;108913;278;38808;-73
2023/09/17 00:22:16;;;;;;;8.90;6.00;;;;;;;15.26;72.69;100904.63;108915;278;38286;-74
2023/09/17 00:24:52;;;;;;;6.90;6.10;;;;;;;15.24;73.07;100900.51;108849;278;38437;-73
2023/09/17 00:27:29;;;;;;;7.30;6.00;;;;;;;15.24;72.78;100899.98;108939;278;39670;-73
2023/09/17 00:30:04;;;;;;;8.60;6.10;;;;;;;15.24;72.71;100896.13;108926;278;39855;-74
2023/09/17 00:32:40;;;;;;;6.40;5.70;;;;;;;15.20;72.85;100888.55;108836;278;175056;-72
2023/09/17 00:35:21;;;;;;;7.10;6.10;;;;;;;15.20;73.03;100888.77;108899;278;38436;-73
2023/09/17 00:38:00;;;;;;;8.30;6.30;;;;;;;15.19;73.09;100880.71;108891;278;38624;-73
2023/09/17 00:40:40;;;;;;;7.90;6.30;;;;;;;15.18;73.37;100876.92;108903;278;38193;-73
2023/09/17 00:43:22;;;;;;;7.10;6.30;;;;;;;15.16;73.27;100876.30;108932;278;38649;-73
2023/09/17 00:45:58;;;;;;;7.60;5.90;;;;;;;15.15;73.35;100874.96;108926;278;39480;-73
2023/09/17 00:48:40;;;;;;;8.90;6.30;;;;;;;15.14;73.29;100871.84;108970;278;38235;-73
2023/09/17 00:51:18;;;;;;;7.60;6.50;;;;;;;15.15;73.45;100876.73;108852;278;39735;-73
2023/09/17 00:53:55;;;;;;;7.00;6.10;;;;;;;15.15;73.37;100875.30;108987;278;38727;-74
2023/09/17 00:56:34;;;;;;;10.30;6.80;;;;;;;15.14;73.46;100875.36;108969;278;38379;-73
2023/09/17 00:59:14;;;;;;;8.80;6.80;;;;;;;15.12;73.47;100875.96;108956;278;38241;-74
2023/09/17 01:01:49;;;;;;;7.00;6.30;;;;;;;15.11;73.56;100874.06;108934;278;38156;-72
2023/09/17 01:04:26;;;;;;;9.40;6.80;;;;;;;15.12;73.62;100869.81;108948;278;39130;-73
2023/09/17 01:07:04;;;;;;;7.50;6.80;;;;;;;15.12;73.81;100861.21;108957;278;38215;-74
2023/09/17 01:09:42;;;;;;;7.60;6.70;;;;;;;15.09;73.79;100861.16;108872;278;38181;-74
2023/09/17 01:12:20;;;;;;;7.70;6.50;;;;;;;15.07;73.86;100864.09;108955;278;39444;-72
2023/09/17 01:14:56;;;;;;;7.30;6.50;;;;;;;15.06;73.83;100862.58;108933;278;38184;-72
2023/09/17 01:17:32;;;;;;;7.90;6.10;;;;;;;15.06;73.77;100864.51;108858;278;38899;-72
2023/09/17 01:20:24;;;;;;;6.90;6.10;;;;;;;15.05;73.79;100859.08;108848;278;38466;-73
2023/09/17 01:23:03;;;;;;;7.50;6.80;;;;;;;15.03;73.86;100851.33;108908;278;38806;-75
2023/09/17 01:25:47;;;;;;;6.90;6.20;;;;;;;15.01;74.05;100848.42;108888;278;38207;-73
2023/09/17 01:28:23;;;;;;;8.50;6.90;;;;;;;15.00;74.25;100843.36;108952;278;39394;-73
2023/09/17 01:30:57;;;;;;;9.20;7.10;;;;;;;14.99;74.14;100841.13;108931;278;39637;-74
2023/09/17 01:33:35;;;;;;;8.70;6.70;;;;;;;14.98;74.36;100840.67;108954;278;39465;-74
2023/09/17 01:36:12;;;;;;;8.20;7.30;;;;;;;14.95;74.41;100840.41;108944;278;38475;-73
2023/09/17 01:38:55;;;;;;;8.70;6.40;;;;;;;14.94;74.62;100834.34;108990;278;39660;-75
2023/09/17 01:41:34;;;;;;;6.90;6.10;;;;;;;14.92;74.50;100834.05;109010;278;38337;-76
2023/09/17 01:44:14;;;;;;;8.90;6.60;;;;;;;14.91;74.63;100829.55;108960;278;39730;-74
2023/09/17 01:46:58;;;;;;;9.20;6.80;;;;;;;14.92;74.72;100825.83;108993;278;38762;-74
2023/09/17 01:49:34;;;;;;;7.80;6.70;;;;;;;14.90;74.73;100823.96;108962;278;38245;-73
2023/09/17 01:52:10;;;;;;;7.20;6.40;;;;;;;14.88;74.77;100827.77;108929;278;38188;-73
2023/09/17 01:54:46;;;;;;;8.20;6.80;;;;;;;14.86;74.82;100828.36;108843;278;39248;-74
2023/09/17 01:57:23;;;;;;;;;;;;;;;14.86;74.74;100827.70;108915;278;38941;-73
2023/09/17 02:00:00;;;;;;;7.90;6.40;;;;;;;14.79;74.97;100831.89;108896;278;39335;-74
2023/09/17 02:02:34;;;;;;;8.00;6.90;;;;;;;14.78;74.97;100832.65;108912;278;38258;-72
2023/09/17 02:05:14;;;;;;;10.90;7.90;;;;;;;14.77;74.97;100829.71;108928;278;38740;-75
2023/09/17 02:07:48;;;;;;;7.80;7.00;;;;;;;14.75;75.14;100822.59;108915;278;38628;-75
2023/09/17 02:10:21;;;;;;;7.40;6.60;;;;;;;14.75;75.17;100822.79;108899;278;38525;-73
2023/09/17 02:12:56;;;;;;;9.60;7.40;;;;;;;14.75;75.10;100823.66;108833;278;175088;-74
2023/09/17 02:15:31;;;;;;;9.00;7.60;;;;;;;14.73;75.30;100819.36;108974;278;38443;-75
2023/09/17 02:18:10;;;;;;;11.00;7.00;;;;;;;14.71;75.33;100820.00;109006;278;39038;-72
2023/09/17 02:20:44;;;;;;;8.40;7.00;;;;;;;14.69;75.40;100821.31;108923;278;39943;-72
2023/09/17 02:23:23;;;;;;;9.70;6.90;;;;;;;14.68;75.57;100823.29;108974;271;39415;-74
2023/09/17 02:26:04;;;;;;;8.20;7.20;;;;;;;14.67;75.47;100824.05;109000;278;38609;-74
2023/09/17 02:28:44;;;;;;;7.30;6.60;;;;;;;14.65;75.42;100823.77;109014;278;39628;-74
2023/09/17 02:31:24;;;;;;;9.40;6.90;;;;;;;14.63;75.65;100825.63;108987;278;38230;-76
2023/09/17 02:34:11;;;;;;;8.50;7.30;;;;;;;14.61;75.57;100825.58;109019;278;38507;-76
2023/09/17 02:36:51;;;;;;;9.80;7.30;;;;;;;14.58;75.69;100827.83;108991;278;38487;-76
2023/09/17 02:39:26;;;;;;;8.10;6.80;;;;;;;14.54;75.77;100827.82;108964;278;38175;-74
2023/09/17 02:42:01;;;;;;;9.90;7.00;;;;;;;14.52;75.88;100827.73;108930;278;38576;-73
2023/09/17 02:44:35;;;;;;;8.40;6.90;;;;;;;14.52;76.01;100825.79;108963;278;38648;-73
2023/09/17 02:47:12;;;;;;;10.30;7.10;;;;;;;14.52;76.11;100823.52;108875;278;38715;-74
2023/09/17 02:49:46;;;;;;;10.30;6.90;;;;;;;14.50;76.05;100826.63;108895;278;38355;-73
2023/09/17 02:52:20;;;;;;;8.50;7.20;;;;;;;14.46;76.09;100828.52;108889;278;39349;-75
2023/09/17 02:54:55;;;;;;;8.50;7.10;;;;;;;14.45;76.29;100828.89;108936;278;39176;-72
2023/09/17 02:57:29;;;;;;;8.20;7.20;;;;;;;14.44;76.18;100832.62;108883;278;38475;-72
2023/09/17 03:00:07;;;;;;;8.80;7.20;;;;;;;14.41;76.25;100836.79;108827;278;175111;-73
2023/09/17 03:02:47;;;;;;;8.80;7.20;;;;;;;14.39;76.52;100834.98;108913;278;38460;-74
2023/09/17 03:05:21;;;;;;;8.60;7.70;;;;;;;14.36;76.45;100838.61;108924;278;38388;-74
2023/09/17 03:08:00;;;;;;;9.10;7.60;;;;;;;14.31;76.49;100839.20;108977;278;38368;-73
2023/09/17 03:10:41;;;;;;;9.20;6.90;;;;;;;14.29;76.48;100837.39;108975;278;39334;-72
2023/09/17 03:13:18;;;;;;;9.80;7.20;;;;;;;14.28;76.47;100839.55;108957;278;38173;-72
2023/09/17 03:15:59;;;;;;;8.40;6.50;;;;;;;14.25;76.63;100840.20;108966;278;39581;-73
2023/09/17 03:18:40;;;;;;;9.70;7.20;;;;;;;14.21;76.72;100840.71;109006;278;38285;-73
2023/09/17 03:21:14;;;;;;;9.10;7.10;;;;;;;14.17;76.78;100841.05;108909;278;38181;-75
2023/09/17 03:23:49;;;;;;;9.20;7.30;;;;;;;14.16;77.11;100833.76;108966;278;38239;-75
2023/09/17 03:26:27;;;;;;;9.00;6.80;;;;;;;14.14;77.16;100842.64;108911;278;38174;-74
2023/09/17 03:29:07;;;;;;;7.70;6.90;;;;;;;14.13;77.07;100845.99;108893;278;39197;-73
2023/09/17 03:31:48;;;;;;;8.30;7.30;;;;;;;14.09;77.40;100838.46;108931;278;38287;-73
2023/09/17 03:34:32;;;;;;;8.60;7.60;;;;;;;14.04;77.30;100837.48;108968;278;39364;-72
2023/09/17 03:37:13;;;;;;;9.90;7.20;;;;;;;13.97;77.62;100833.20;108878;278;38521;-74
2023/09/17 03:40:10;;;;;;;8.20;7.30;;;;;;;13.95;77.72;100834.52;108971;278;38423;-72
2023/09/17 03:42:47;;;;;;;10.10;8.00;;;;;;;13.95;77.93;100835.96;108921;278;38259;-72
2023/09/17 03:45:22;;;;;;;10.70;8.60;;;;;;;13.91;77.82;100839.27;108953;278;38237;-74
2023/09/17 03:47:59;;;;;;;8.50;7.60;;;;;;;13.86;77.90;100841.94;109025;278;39390;-73
2023/09/17 03:50:33;;;;;;;11.00;7.90;;;;;;;13.85;78.41;100840.59;109005;278;39339;-73
2023/09/17 03:53:09;;;;;;;9.30;7.80;;;;;;;13.87;78.28;100842.61;108972;278;38239;-73
2023/09/17 03:55:46;;;;;;;10.90;7.90;;;;;;;13.87;78.25;100832.93;108955;278;38394;-75
2023/09/17 03:58:23;;;;;;;9.30;8.30;;;;;;;13.89;78.58;100832.16;109055;278;38245;-73
2023/09/17 04:00:59;;;;;;;10.50;8.20;;;;;;;13.92;78.90;100829.57;108857;278;175145;-73
2023/09/17 04:03:36;;;;;;;9.80;7.80;;;;;;;13.88;78.67;100831.34;108956;278;39677;-72
2023/09/17 04:06:10;;;;;;;8.70;7.80;;;;;;;13.87;78.81;100826.14;108963;278;39660;-74
2023/09/17 04:08:44;;;;;;;10.60;8.40;;;;;;;13.87;78.86;100821.73;108952;278;38263;-72
2023/09/17 04:11:19;;;;;;;9.00;7.90;;;;;;;13.88;79.10;100818.15;108870;278;40353;-72
2023/09/17 04:13:54;;;;;;;10.00;8.70;;;;;;;13.92;79.16;100820.23;108918;278;38329;-72
2023/09/17 04:16:29;;;;;;;12.20;9.60;;;;;;;13.94;79.12;100820.91;108925;278;38201;-73
2023/09/17 04:19:03;;;;;;;11.50;8.50;;;;;;;13.91;79.24;100825.73;108950;278;38177;-74
2023/09/17 04:21:39;;;;;;;9.60;8.60;;;;;;;13.92;79.25;100822.71;108879;278;38338;-73
2023/09/17 04:24:21;;;;;;;9.60;8.60;;;;;;;13.97;79.45;100822.54;108929;278;39771;-72
2023/09/17 04:26:57;;;;;;;10.70;9.00;;;;;;;13.99;79.49;100811.90;108947;278;39395;-73
2023/09/17 04:29:31;;;;;;;10.90;9.10;;;;;;;13.98;79.64;100807.55;108993;278;38283;-72
2023/09/17 04:32:12;;;;;;;10.90;9.20;;;;;;;13.98;79.58;100808.80;108978;278;38023;-72
2023/09/17 04:34:46;;;;;;;11.10;8.80;;;;;;;14.00;79.62;100808.70;108991;278;39322;-73
2023/09/17 04:37:22;;;;;;;12.10;8.70;;;;;;;14.05;79.63;100804.45;108976;278;39416;-73
2023/09/17 04:39:56;;;;;;;10.80;9.10;;;;;;;14.08;79.78;100806.59;108990;278;38344;-74
2023/09/17 04:42:31;;;;;;;11.70;8.50;;;;;;;14.09;79.69;100811.10;109051;278;38767;-73
2023/09/17 04:45:06;;;;;;;11.70;8.80;;;;;;;14.12;79.78;100812.19;109005;279;39054;-74
2023/09/17 04:47:43;;;;;;;11.30;8.40;;;;;;;14.10;79.81;100811.95;109096;279;38200;-72
2023/09/17 04:50:17;;;;;;;12.00;8.70;;;;;;;14.13;79.79;100814.60;109005;279;38325;-72
2023/09/17 04:52:54;;;;;;;9.70;8.20;;;;;;;14.20;79.70;100818.33;109053;279;38261;-73
2023/09/17 04:55:32;;;;;;;13.80;9.70;;;;;;;14.25;79.81;100821.07;108969;279;38419;-72
2023/09/17 04:58:07;;;;;;;10.10;8.60;;;;;;;14.29;79.70;100828.59;109107;278;38155;-74
2023/09/17 05:00:44;;;;;;;10.40;9.00;;;;;;;14.29;79.61;100828.06;109055;279;39355;-74
2023/09/17 05:03:20;;;;;;;11.60;8.40;;;;;;;14.33;79.79;100829.10;108918;279;39345;-72
2023/09/17 05:05:54;;;;;;;11.70;10.00;;;;;;;14.41;79.76;100825.25;109014;279;38551;-74
2023/09/17 05:08:31;;;;;;;11.50;9.00;;;;;;;14.48;79.76;100829.52;108330;279;895912;-72
2023/09/17 05:11:13;;;;;;;11.00;8.90;;;;;;;14.53;79.95;100833.13;109033;279;38492;-74
2023/09/17 05:13:47;;;;;;;10.60;8.90;;;;;;;14.66;80.49;100836.22;108939;279;40291;-72
2023/09/17 05:16:29;;;;;;;11.60;8.50;;;;;;;14.92;80.45;100836.69;109085;278;39188;-72
2023/09/17 05:19:04;;;;;;;12.60;8.70;;;;;;;15.17;79.86;100836.90;109048;279;38160;-73
2023/09/17 05:21:39;;;;;;;10.20;9.00;;;;;;;15.30;79.07;100834.81;109103;279;38630;-72
2023/09/17 05:24:25;;;;;;;10.60;8.40;;;;;;;15.36;78.46;100836.44;109121;278;38225;-72
2023/09/17 05:27:05;;;;;;;10.90;8.80;;;;;;;15.45;78.26;100836.33;108925;279;39364;-74
2023/09/17 05:29:47;;;;;;;9.90;8.80;;;;;;;15.53;77.80;100840.91;109048;279;38154;-72
2023/09/17 05:32:22;;;;;;;10.90;8.30;;;;;;;15.57;77.61;100836.48;108978;279;38267;-72
2023/09/17 05:35:10;;;;;;;11.10;8.20;;;;;;;15.61;77.35;100845.21;108985;279;38149;-72
2023/09/17 05:37:45;;;;;;;9.80;8.80;;;;;;;15.68;77.34;100848.07;108964;279;38331;-74
2023/09/17 05:40:20;;;;;;;11.20;9.30;;;;;;;15.71;77.15;100850.34;108991;279;38628;-73
2023/09/17 05:42:54;;;;;;;11.40;9.20;;;;;;;15.76;77.04;100852.74;108985;279;38350;-73
2023/09/17 05:45:29;;;;;;;12.00;9.10;;;;;;;15.78;76.92;100850.52;108913;278;38768;-72
2023/09/17 05:48:05;;;;;;;10.00;8.70;;;;;;;16.06;77.84;100844.66;108947;278;39494;-73
2023/09/17 05:50:42;;;;;;;10.60;8.60;;;;;;;17.04;80.90;100847.18;108884;278;38625;-72
2023/09/17 05:53:16;;;;;;;12.40;9.10;;;;;;;18.32;81.07;100841.95;108898;278;39613;-73
2023/09/17 05:55:53;;;;;;;9.70;8.70;;;;;;;19.33;76.77;100838.79;108896;278;38426;-72
2023/09/17 05:58:33;;;;;;;10.20;8.50;;;;;;;20.13;72.41;100837.54;108909;278;38613;-73
2023/09/17 06:01:16;;;;;;;11.90;9.10;;;;;;;20.80;68.68;100834.36;108952;278;38480;-72
2023/09/17 06:03:52;;;;;;;11.70;8.70;;;;;;;21.01;65.70;100834.61;109017;278;38332;-74
2023/09/17 06:06:26;;;;;;;10.80;9.10;;;;;;;20.82;63.53;100835.98;109008;278;38880;-74
2023/09/17 06:09:03;;;;;;;10.90;9.40;;;;;;;20.53;62.59;100832.41;108897;278;39890;-73
2023/09/17 06:11:38;;;;;;;8.70;7.80;;;;;;;20.19;62.33;100827.05;108813;278;174873;-75
2023/09/17 06:14:14;;;;;;;9.80;8.70;;;;;;;19.88;62.83;100829.98;108919;278;38222;-74
2023/09/17 06:16:52;;;;;;;10.50;8.60;;;;;;;19.65;63.00;100825.31;108897;278;39100;-74
2023/09/17 06:19:27;;;;;;;10.50;8.70;;;;;;;19.47;63.44;100826.35;108924;278;39375;-74
2023/09/17 06:22:01;;;;;;;10.40;8.30;;;;;;;19.34;63.76;100827.98;108933;278;38289;-73
2023/09/17 06:24:38;;;;;;;10.30;8.40;;;;;;;19.22;63.65;100833.37;108872;278;39399;-73
2023/09/17 06:27:15;;;;;;;10.40;8.40;;;;;;;19.07;64.08;100836.11;108808;278;177309;-74
2023/09/17 06:29:52;;;;;;;10.00;8.70;;;;;;;18.94;64.28;100833.07;108889;278;38537;-72
2023/09/17 06:32:27;;;;;;;10.30;8.80;;;;;;;18.90;64.67;100837.08;108865;278;38273;-72
2023/09/17 06:35:01;;;;;;;10.80;9.30;;;;;;;18.87;64.91;100835.65;108896;278;41292;-73
2023/09/17 06:37:36;;;;;;;9.70;8.60;;;;;;;18.82;65.04;100837.80;108918;278;38658;-73
2023/09/17 06:40:17;;;;;;;10.20;9.20;;;;;;;18.82;65.27;100837.95;108835;278;174867;-74
2023/09/17 06:42:53;;;;;;;10.40;9.30;;;;;;;18.80;65.35;100839.67;108953;278;38362;-74
2023/09/17 06:45:27;;;;;;;9.90;8.90;;;;;;;18.79;65.69;100834.77;108929;278;38149;-72
2023/09/17 06:48:09;;;;;;;10.20;8.70;;;;;;;18.82;65.88;100836.55;108871;278;174946;-73
2023/09/17 06:50:44;;;;;;;9.20;8.10;;;;;;;18.85;65.59;100836.87;108937;278;38176;-72
2023/09/17 06:53:18;;;;;;;9.80;8.10;;;;;;;18.86;65.65;100836.80;108870;278;174860;-74
2023/09/17 06:55:54;;;;;;;10.10;9.10;;;;;;;18.89;65.53;100836.84;108928;278;38452;-75
2023/09/17 06:58:34;;;;;;;10.70;9.00;;;;;;;18.91;65.71;100840.71;108362;278;752657;-73
2023/09/17 07:01:09;;;;;;;10.10;8.40;;;;;;;18.96;65.77;100839.50;108914;278;38258;-73
2023/09/17 07:03:46;;;;;;;11.00;8.60;;;;;;;19.00;65.69;100829.84;108929;278;39086;-75
2023/09/17 07:06:21;;;;;;;11.80;9.00;;;;;;;19.06;65.86;100831.56;108876;278;39136;-73
2023/09/17 07:08:57;;;;;;;10.60;8.50;;;;;;;19.14;65.67;100830.55;108904;278;38471;-75
2023/09/17 07:11:34;;;;;;;;;;;;;;;19.21;65.55;100826.56;108876;278;39518;-73
2023/09/17 07:14:10;;;;;;;10.50;8.70;;;;;;;19.21;65.56;100824.92;108870;278;39254;-74
2023/09/17 07:16:49;;;;;;;9.70;8.50;;;;;;;19.30;65.64;100827.50;108759;278;174813;-73
2023/09/17 07:19:24;;;;;;;10.60;8.90;;;;;;;19.41;65.36;100828.73;108919;278;38168;-74
2023/09/17 07:22:00;;;;;;;13.00;9.50;;;;;;;19.52;65.27;100828.69;108882;278;40479;-75
2023/09/17 07:24:44;;;;;;;9.90;8.80;;;;;;;19.60;64.90;100825.86;108920;278;38808;-75
2023/09/17 07:27:22;;;;;;;10.60;8.70;;;;;;;19.64;64.99;100826.09;108766;278;174851;-72
2023/09/17 07:30:02;;;;;;;10.40;9.00;;;;;;;19.69;64.80;100825.05;109007;278;38274;-75
2023/09/17 07:32:45;;;;;;;9.90;8.90;;;;;;;19.70;64.52;100826.94;109003;278;38182;-73
2023/09/17 07:35:26;;;;;;;10.30;9.20;;;;;;;19.72;64.71;100827.02;108935;278;38284;-72
2023/09/17 07:38:00;;;;;;;12.00;9.00;;;;;;;19.75;64.27;100826.06;108890;278;38173;-75
2023/09/17 07:40:36;;;;;;;10.00;8.40;;;;;;;19.78;64.33;100829.91;108903;278;39415;-73
2023/09/17 07:43:13;;;;;;;10.20;8.30;;;;;;;19.84;64.73;100825.56;108958;278;38937;-70
2023/09/17 07:45:47;;;;;;;10.10;8.40;;;;;;;19.92;65.01;100827.92;108821;278;38807;-70
2023/09/17 07:48:26;;;;;;;10.70;8.70;;;;;;;20.15;63.96;100822.94;108934;278;38739;-70
2023/09/17 07:51:04;;;;;;;9.60;8.00;;;;;;;20.44;63.93;100819.95;108916;278;38753;-70
2023/09/17 07:53:41;;;;;;;10.60;8.60;;;;;;;21.03;64.60;100823.08;108871;278;38282;-72
2023/09/17 07:56:18;;;;;;;11.00;8.70;;;;;;;21.88;63.12;100821.80;108951;278;38272;-70
2023/09/17 07:59:01;;;;;;;10.00;8.00;;;;;;;22.59;60.85;100813.79;108955;278;38214;-71
2023/09/17 08:01:37;;;;;;;9.70;8.30;;;;;;;23.47;59.66;100815.02;108982;278;38453;-71
2023/09/17 08:04:12;;;;;;;8.50;7.30;;;;;;;24.36;57.30;100808.19;108948;278;40548;-71
2023/09/17 08:06:50;;;;;;;8.60;7.60;;;;;;;25.36;55.34;100804.45;108954;278;38411;-71
2023/09/17 08:09:30;;;;;;;8.70;7.80;;;;;;;26.39;53.02;100799.98;109024;278;38372;-73
2023/09/17 08:12:33;;;;;;;8.00;7.10;;;;;;;27.41;50.19;100798.23;109009;278;38252;-73
2023/09/17 08:15:20;;;;;;;8.70;7.80;;;;;;;28.33;47.09;100799.59;108897;279;38201;-70
2023/09/17 08:17:59;;;;;;;7.60;6.50;;;;;;;29.00;44.93;100802.98;108788;280;174198;-69
2023/09/17 08:20:34;;;;;;;7.60;6.70;;;;;;;29.58;43.38;100806.18;108892;279;38188;-70
2023/09/17 08:23:10;;;;;;;7.90;7.20;;;;;;;29.93;41.39;100807.42;108915;279;38340;-71
2023/09/17 08:25:45;;;;;;;8.00;7.10;;;;;;;30.08;41.18;100810.71;108824;280;38339;-70
2023/09/17 08:28:22;;;;;;;8.00;7.30;;;;;;;30.08;40.74;100813.26;108928;279;38524;-70
2023/09/17 08:30:59;;;;;;;6.90;6.20;;;;;;;29.93;40.80;100813.11;108848;279;40635;-72
2023/09/17 08:33:37;;;;;;;8.60;7.20;;;;;;;29.64;40.61;100814.98;108912;279;38472;-71
2023/09/17 08:36:15;;;;;;;8.00;7.20;;;;;;;29.38;40.92;100810.71;108863;279;38312;-70
2023/09/17 08:38:57;;;;;;;8.90;7.00;;;;;;;29.29;40.50;100806.47;108864;280;38622;-72
2023/09/17 08:41:40;;;;;;;8.80;7.20;;;;;;;29.32;40.19;100805.42;108880;280;39387;-68
2023/09/17 08:44:16;;;;;;;7.80;7.00;;;;;;;29.28;40.58;100800.44;108926;280;38448;-71
2023/09/17 08:46:54;;;;;;;7.60;6.80;;;;;;;29.40;41.45;100802.92;108935;280;38217;-70
2023/09/17 08:49:31;;;;;;;7.20;6.50;;;;;;;29.67;40.83;100802.61;108972;280;38927;-71
2023/09/17 08:52:14;;;;;;;8.90;6.90;;;;;;;29.85;40.64;100803.98;108948;280;38281;-71
2023/09/17 08:54:48;;;;;;;8.10;6.70;;;;;;;30.08;40.12;100806.05;108895;280;38697;-77
2023/09/17 08:57:24;;;;;;;7.60;6.90;;;;;;;30.18;39.66;100804.29;108875;280;38234;-73
2023/09/17 09:00:08;;;;;;;7.70;6.80;;;;;;;30.08;39.54;100804.82;108911;280;38370;-73
2023/09/17 09:02:47;;;;;;;7.20;6.60;;;;;;;29.89;39.61;100804.61;108898;280;38486;-72
2023/09/17 09:05:25;;;;;;;7.20;6.60;;;;;;;29.65;39.92;100801.55;108822;280;38220;-72
2023/09/17 09:08:01;;;;;;;8.70;7.10;;;;;;;29.48;39.76;100800.42;108846;280;39002;-72
2023/09/17 09:10:36;;;;;;;7.70;6.70;;;;;;;29.18;40.11;100797.22;108853;280;39575;-71
2023/09/17 09:13:10;;;;;;;8.30;6.80;;;;;;;28.79;40.48;100795.38;108903;279;38325;-73
2023/09/17 09:15:44;;;;;;;7.60;6.80;;;;;;;28.55;41.09;100797.82;108918;279;38794;-72
2023/09/17 09:18:24;;;;;;;8.00;7.20;;;;;;;28.48;41.91;100796.56;108922;278;38218;-72
2023/09/17 09:20:58;;;;;;;7.70;6.90;;;;;;;28.68;42.00;100794.08;108887;278;38177;-72
2023/09/17 09:23:39;;;;;;;7.20;6.40;;;;;;;28.95;41.27;100791.17;108937;278;38790;-75
2023/09/17 09:26:13;;;;;;;7.70;6.60;;;;;;;29.22;41.71;100795.61;108925;278;38914;-74
2023/09/17 09:28:49;;;;;;;7.20;6.60;;;;;;;29.68;40.35;100798.77;108919;278;39246;-73
2023/09/17 09:31:26;;;;;;;7.20;6.00;;;;;;;29.97;39.54;100794.36;108987;278;40026;-73
2023/09/17 09:34:02;;;;;;;8.10;6.00;;;;;;;30.37;40.17;100795.05;108999;278;39254;-73
2023/09/17 09:36:42;;;;;;;6.90;6.20;;;;;;;30.86;39.61;100789.84;108987;278;38396;-73
2023/09/17 09:39:18;;;;;;;6.60;6.00;;;;;;;31.28;38.85;100789.05;108979;278;38234;-73
2023/09/17 09:41:56;;;;;;;7.00;6.20;;;;;;;31.43;37.88;100789.24;108922;278;38223;-74
2023/09/17 09:44:29;;;;;;;;;;;;;;;31.36;38.17;100794.30;108939;278;38632;-74
2023/09/17 09:47:04;;;;;;;6.60;6.00;;;;;;;31.15;37.87;100789.89;108936;278;38187;-74
2023/09/17 09:49:50;;;;;;;6.60;6.00;;;;;;;30.85;38.50;100792.39;108928;278;38177;-73
2023/09/17 09:52:28;;;;;;;7.60;5.90;;;;;;;30.52;38.76;100789.91;108921;278;38840;-74
2023/09/17 09:55:07;;;;;;;6.10;5.60;;;;;;;30.20;38.93;100793.78;108882;278;39392;-74
2023/09/17 09:57:44;;;;;;;8.40;6.40;;;;;;;29.80;39.47;100792.11;108250;278;887995;-74
2023/09/17 10:00:26;;;;;;;7.60;6.80;;;;;;;29.46;40.10;100793.09;108891;278;38165;-73
2023/09/17 10:03:04;;;;;;;7.40;6.60;;;;;;;29.14;40.46;100794.32;108916;278;38152;-73
2023/09/17 10:05:40;;;;;;;8.20;7.00;;;;;;;28.78;41.12;100791.70;108903;278;38742;-72
2023/09/17 10:08:17;;;;;;;7.50;6.80;;;;;;;28.40;41.06;100791.20;108920;278;38356;-73
2023/09/17 10:10:57;;;;;;;7.40;6.70;;;;;;;28.08;42.27;100791.52;108900;278;38210;-72
2023/09/17 10:13:32;;;;;;;7.20;6.40;;;;;;;27.88;43.01;100789.10;108934;278;38617;-73
2023/09/17 10:16:06;;;;;;;6.60;5.90;;;;;;;27.71;43.80;100786.87;108924;278;39413;-74
2023/09/17 10:18:48;;;;;;;8.20;6.30;;;;;;;27.60;44.17;100789.88;108959;278;38456;-75
2023/09/17 10:21:29;;;;;;;7.60;6.40;;;;;;;27.49;44.32;100791.20;108910;278;39343;-72
2023/09/17 10:24:09;;;;;;;8.30;6.40;;;;;;;27.36;44.26;100788.19;108951;278;38408;-72
2023/09/17 10:26:45;;;;;;;7.50;6.20;;;;;;;27.19;44.79;100788.17;108999;278;40106;-72
2023/09/17 10:29:24;;;;;;;6.60;5.90;;;;;;;27.11;45.26;100792.34;108967;278;38626;-72
2023/09/17 10:31:57;;;;;;;;;;;;;;;27.05;45.08;100791.02;108935;278;39338;-72
2023/09/17 10:34:44;;;;;;;6.50;5.90;;;;;;;26.89;45.86;100786.27;108933;278;38174;-72
2023/09/17 10:37:22;;;;;;;8.90;5.90;;;;;;;26.87;46.12;100785.65;108860;278;38736;-72
2023/09/17 10:40:00;;;;;;;7.00;6.20;;;;;;;26.87;46.44;100789.07;108948;278;38163;-70
2023/09/17 10:42:39;;;;;;;6.90;6.20;;;;;;;26.81;46.73;100789.32;108931;278;38441;-69
2023/09/17 10:45:17;;;;;;;7.10;6.40;;;;;;;26.76;46.74;100790.47;108923;278;38173;-72
2023/09/17 10:47:53;;;;;;;6.80;6.10;;;;;;;26.68;46.60;100791.77;108854;278;38788;-70
2023/09/17 10:50:34;;;;;;;7.70;7.00;;;;;;;26.53;46.77;100791.83;108902;278;39711;-70
2023/09/17 10:53:10;;;;;;;6.50;5.90;;;;;;;26.45;47.21;100789.26;108965;278;38774;-72
2023/09/17 10:55:58;;;;;;;7.10;6.40;;;;;;;26.39;47.17;100790.41;108948;278;38762;-74
2023/09/17 10:58:38;;;;;;;6.50;5.80;;;;;;;26.21;47.17;100788.73;108928;278;38224;-70
2023/09/17 11:01:13;;;;;;;7.20;6.30;;;;;;;26.09;47.83;100791.50;108939;278;38784;-71
2023/09/17 11:03:52;;;;;;;11.70;6.80;;;;;;;26.03;48.07;100790.27;108947;278;39480;-73
2023/09/17 11:06:31;;;;;;;7.30;6.30;;;;;;;26.03;48.30;100791.27;108969;278;38480;-72
2023/09/17 11:09:06;;;;;;;8.30;6.80;;;;;;;26.04;48.55;100788.58;108983;278;38801;-71
2023/09/17 11:11:43;;;;;;;6.60;5.90;;;;;;;25.99;48.49;100787.23;108938;278;39669;-72
2023/09/17 11:14:19;;;;;;;6.20;5.50;;;;;;;25.98;48.79;100788.39;108951;278;38628;-71
2023/09/17 11:17:00;;;;;;;6.70;5.90;;;;;;;26.04;49.18;100783.56;108967;278;38880;-73
2023/09/17 11:19:39;;;;;;;6.20;5.60;;;;;;;26.07;49.08;100783.28;108919;278;39801;-70
2023/09/17 11:22:18;;;;;;;7.30;5.60;;;;;;;26.10;49.02;100787.15;108934;278;38670;-71
2023/09/17 11:24:58;;;;;;;6.50;5.90;;;;;;;26.07;49.33;100787.23;108896;278;39057;-72
2023/09/17 11:27:53;;;;;;;6.80;6.20;;;;;;;26.04;49.17;100786.65;108867;278;40080;-72
2023/09/17 11:30:30;;;;;;;6.10;5.60;;;;;;;25.88;48.66;100780.84;108894;278;38457;-72
2023/09/17 11:33:10;;;;;;;6.80;6.10;;;;;;;25.77;48.91;100780.81;108939;278;38160;-74
2023/09/17 11:35:50;;;;;;;7.20;6.50;;;;;;;25.72;49.25;100780.88;108903;278;38240;-72
2023/09/17 11:38:30;;;;;;;6.30;5.60;;;;;;;25.70;49.39;100776.05;108901;278;39449;-71
2023/09/17 11:41:11;;;;;;;6.40;5.80;;;;;;;25.71;49.56;100774.92;108833;278;38651;-71
2023/09/17 11:43:51;;;;;;;6.20;5.50;;;;;;;25.71;49.53;100777.95;108818;278;174163;-72
2023/09/17 11:46:28;;;;;;;6.20;5.60;;;;;;;25.68;49.48;100775.34;108894;278;41476;-72
2023/09/17 11:49:08;;;;;;;6.20;5.60;;;;;;;25.64;49.24;100776.29;108948;278;39250;-70
2023/09/17 11:51:47;;;;;;;6.30;5.70;;;;;;;25.58;49.63;100774.53;108992;278;38742;-70
2023/09/17 11:54:24;;;;;;;6.40;5.70;;;;;;;25.59;50.07;100772.80;109015;278;38289;-72
2023/09/17 11:56:59;;;;;;;6.60;6.00;;;;;;;25.61;49.96;100772.69;108959;278;38251;-72
2023/09/17 11:59:39;;;;;;;6.50;5.80;;;;;;;25.59;49.85;100770.16;108991;278;38773;-74
2023/09/17 12:02:13;;;;;;;6.30;5.60;;;;;;;25.59;49.76;100769.48;108940;278;39936;-72
2023/09/17 12:04:51;;;;;;;6.50;5.70;;;;;;;25.54;49.76;100771.87;108932;278;38268;-71
2023/09/17 12:07:29;;;;;;;6.40;5.80;;;;;;;25.51;49.71;100771.45;108952;278;38138;-73
2023/09/17 12:10:15;;;;;;;6.00;5.50;;;;;;;25.50;50.02;100772.79;108882;278;38433;-72
2023/09/17 12:12:51;;;;;;;6.50;5.90;;;;;;;25.52;50.33;100771.55;108916;278;38345;-71